sensor_id;sensor_type;location;lat;lon;timestamp;temperature;humidity
35680;DHT22;21803;53.586;10.040;2022-10-16T00:01:57;21.30;55.10
35680;DHT22;21803;53.586;10.040;2022-10-16T00:04:23;21.30;55.10
35680;DHT22;21803;53.586;10.040;2022-10-16T00:06:49;21.30;55.10
35680;DHT22;21803;53.586;10.040;2022-10-16T00:09:14;21.30;55.10
35680;DHT22;21803;53.586;10.040;2022-10-16T00:11:40;21.30;55.10
35680;DHT22;21803;53.586;10.040;2022-10-16T00:14:12;21.30;55.00
35680;DHT22;21803;53.586;10.040;2022-10-16T00:16:39;21.30;55.00
35680;DHT22;21803;53.586;10.040;2022-10-16T00:19:05;21.30;55.00
35680;DHT22;21803;53.586;10.040;2022-10-16T00:21:31;21.30;54.90
35680;DHT22;21803;53.586;10.040;2022-10-16T00:23:59;21.30;54.90
35680;DHT22;21803;53.586;10.040;2022-10-16T00:26:25;21.30;54.90
35680;DHT22;21803;53.586;10.040;2022-10-16T00:28:52;21.30;54.90
35680;DHT22;21803;53.586;10.040;2022-10-16T00:31:20;21.30;54.90
35680;DHT22;21803;53.586;10.040;2022-10-16T00:33:45;21.20;54.90
35680;DHT22;21803;53.586;10.040;2022-10-16T00:36:13;21.20;54.90
35680;DHT22;21803;53.586;10.040;2022-10-16T00:38:39;21.30;54.90
35680;DHT22;21803;53.586;10.040;2022-10-16T00:41:12;21.30;54.90
35680;DHT22;21803;53.586;10.040;2022-10-16T00:43:43;21.30;54.80
35680;DHT22;21803;53.586;10.040;2022-10-16T00:46:23;21.30;54.80
35680;DHT22;21803;53.586;10.040;2022-10-16T00:51:38;21.30;54.90
35680;DHT22;21803;53.586;10.040;2022-10-16T00:54:10;21.30;54.90
35680;DHT22;21803;53.586;10.040;2022-10-16T00:56:36;21.30;54.90
35680;DHT22;21803;53.586;10.040;2022-10-16T00:59:06;21.30;54.90
35680;DHT22;21803;53.586;10.040;2022-10-16T01:01:33;21.30;54.90
35680;DHT22;21803;53.586;10.040;2022-10-16T01:03:58;21.20;54.90
35680;DHT22;21803;53.586;10.040;2022-10-16T01:06:36;21.30;55.00
35680;DHT22;21803;53.586;10.040;2022-10-16T01:09:23;21.30;55.00
35680;DHT22;21803;53.586;10.040;2022-10-16T01:12:05;21.30;55.00
35680;DHT22;21803;53.586;10.040;2022-10-16T01:14:47;21.30;55.00
35680;DHT22;21803;53.586;10.040;2022-10-16T01:17:34;21.30;55.00
35680;DHT22;21803;53.586;10.040;2022-10-16T01:22:50;21.30;55.00
35680;DHT22;21803;53.586;10.040;2022-10-16T01:25:25;21.30;55.10
35680;DHT22;21803;53.586;10.040;2022-10-16T01:27:54;21.30;55.10
35680;DHT22;21803;53.586;10.040;2022-10-16T01:30:25;21.30;55.10
35680;DHT22;21803;53.586;10.040;2022-10-16T01:33:01;21.30;55.10
35680;DHT22;21803;53.586;10.040;2022-10-16T01:35:38;21.20;55.00
35680;DHT22;21803;53.586;10.040;2022-10-16T01:38:08;21.30;55.10
35680;DHT22;21803;53.586;10.040;2022-10-16T01:40:37;21.30;55.10
35680;DHT22;21803;53.586;10.040;2022-10-16T01:43:26;21.20;55.10
35680;DHT22;21803;53.586;10.040;2022-10-16T01:45:53;21.30;55.10
35680;DHT22;21803;53.586;10.040;2022-10-16T01:48:21;21.30;55.10
35680;DHT22;21803;53.586;10.040;2022-10-16T01:51:02;21.30;55.10
35680;DHT22;21803;53.586;10.040;2022-10-16T01:53:29;21.20;55.00
35680;DHT22;21803;53.586;10.040;2022-10-16T01:55:57;21.30;55.00
35680;DHT22;21803;53.586;10.040;2022-10-16T01:58:25;21.30;55.10
35680;DHT22;21803;53.586;10.040;2022-10-16T02:00:52;21.20;55.00
35680;DHT22;21803;53.586;10.040;2022-10-16T02:03:19;21.20;55.00
35680;DHT22;21803;53.586;10.040;2022-10-16T02:05:48;21.30;55.10
35680;DHT22;21803;53.586;10.040;2022-10-16T02:08:15;21.30;55.10
35680;DHT22;21803;53.586;10.040;2022-10-16T02:10:40;21.30;55.10
35680;DHT22;21803;53.586;10.040;2022-10-16T02:13:10;21.30;55.00
35680;DHT22;21803;53.586;10.040;2022-10-16T02:15:37;21.30;55.10
35680;DHT22;21803;53.586;10.040;2022-10-16T02:18:04;21.20;55.00
35680;DHT22;21803;53.586;10.040;2022-10-16T02:20:36;21.30;55.00
35680;DHT22;21803;53.586;10.040;2022-10-16T02:23:03;21.20;55.00
35680;DHT22;21803;53.586;10.040;2022-10-16T02:25:35;21.20;55.00
35680;DHT22;21803;53.586;10.040;2022-10-16T02:28:07;21.30;55.00
35680;DHT22;21803;53.586;10.040;2022-10-16T02:30:41;21.10;54.90
35680;DHT22;21803;53.586;10.040;2022-10-16T02:33:10;21.20;54.90
35680;DHT22;21803;53.586;10.040;2022-10-16T02:35:38;21.30;55.00
35680;DHT22;21803;53.586;10.040;2022-10-16T02:38:04;21.30;55.00
35680;DHT22;21803;53.586;10.040;2022-10-16T02:40:30;21.30;55.00
35680;DHT22;21803;53.586;10.040;2022-10-16T02:42:56;21.30;55.00
35680;DHT22;21803;53.586;10.040;2022-10-16T02:45:23;21.20;54.90
35680;DHT22;21803;53.586;10.040;2022-10-16T02:47:49;21.30;55.00
35680;DHT22;21803;53.586;10.040;2022-10-16T02:50:14;21.30;54.90
35680;DHT22;21803;53.586;10.040;2022-10-16T02:52:40;21.20;54.90
35680;DHT22;21803;53.586;10.040;2022-10-16T02:55:06;21.30;54.90
35680;DHT22;21803;53.586;10.040;2022-10-16T02:57:32;21.30;54.90
35680;DHT22;21803;53.586;10.040;2022-10-16T02:59:58;21.20;54.90
35680;DHT22;21803;53.586;10.040;2022-10-16T03:02:23;21.20;54.80
35680;DHT22;21803;53.586;10.040;2022-10-16T03:04:49;21.20;54.80
35680;DHT22;21803;53.586;10.040;2022-10-16T03:07:14;21.30;54.90
35680;DHT22;21803;53.586;10.040;2022-10-16T03:09:40;21.20;54.80
35680;DHT22;21803;53.586;10.040;2022-10-16T03:12:06;21.20;54.80
35680;DHT22;21803;53.586;10.040;2022-10-16T03:14:32;21.20;54.80
35680;DHT22;21803;53.586;10.040;2022-10-16T03:16:58;21.20;54.80
35680;DHT22;21803;53.586;10.040;2022-10-16T03:19:23;21.20;54.80
35680;DHT22;21803;53.586;10.040;2022-10-16T03:21:49;21.20;54.80
35680;DHT22;21803;53.586;10.040;2022-10-16T03:24:14;21.20;54.80
35680;DHT22;21803;53.586;10.040;2022-10-16T03:26:40;21.20;54.80
35680;DHT22;21803;53.586;10.040;2022-10-16T03:29:05;21.20;54.80
35680;DHT22;21803;53.586;10.040;2022-10-16T03:31:32;21.20;54.80
35680;DHT22;21803;53.586;10.040;2022-10-16T03:33:57;21.30;54.80
35680;DHT22;21803;53.586;10.040;2022-10-16T03:36:23;21.20;54.80
35680;DHT22;21803;53.586;10.040;2022-10-16T03:38:48;21.20;54.70
35680;DHT22;21803;53.586;10.040;2022-10-16T03:41:14;21.20;54.70
35680;DHT22;21803;53.586;10.040;2022-10-16T03:43:39;21.30;54.70
35680;DHT22;21803;53.586;10.040;2022-10-16T03:46:05;21.20;55.30
35680;DHT22;21803;53.586;10.040;2022-10-16T03:48:30;21.30;54.70
35680;DHT22;21803;53.586;10.040;2022-10-16T03:50:57;21.20;54.70
35680;DHT22;21803;53.586;10.040;2022-10-16T03:53:23;21.20;54.60
35680;DHT22;21803;53.586;10.040;2022-10-16T03:55:48;21.30;54.70
35680;DHT22;21803;53.586;10.040;2022-10-16T03:58:14;21.20;54.60
35680;DHT22;21803;53.586;10.040;2022-10-16T04:00:44;21.20;54.60
35680;DHT22;21803;53.586;10.040;2022-10-16T04:03:10;21.30;54.60
35680;DHT22;21803;53.586;10.040;2022-10-16T04:05:36;21.30;54.60
35680;DHT22;21803;53.586;10.040;2022-10-16T04:08:02;21.30;54.60
35680;DHT22;21803;53.586;10.040;2022-10-16T04:10:28;21.30;54.60
35680;DHT22;21803;53.586;10.040;2022-10-16T04:12:54;21.20;54.60
35680;DHT22;21803;53.586;10.040;2022-10-16T04:15:22;21.20;54.50
35680;DHT22;21803;53.586;10.040;2022-10-16T04:17:47;21.20;54.50
35680;DHT22;21803;53.586;10.040;2022-10-16T04:20:13;21.30;54.60
35680;DHT22;21803;53.586;10.040;2022-10-16T04:22:38;21.30;54.50
35680;DHT22;21803;53.586;10.040;2022-10-16T04:25:05;21.20;54.50
35680;DHT22;21803;53.586;10.040;2022-10-16T04:27:30;21.20;54.50
35680;DHT22;21803;53.586;10.040;2022-10-16T04:29:57;21.20;54.50
35680;DHT22;21803;53.586;10.040;2022-10-16T04:32:23;21.20;54.50
35680;DHT22;21803;53.586;10.040;2022-10-16T04:34:48;21.30;54.50
35680;DHT22;21803;53.586;10.040;2022-10-16T04:37:14;21.20;54.50
35680;DHT22;21803;53.586;10.040;2022-10-16T04:39:39;21.30;54.50
35680;DHT22;21803;53.586;10.040;2022-10-16T04:42:05;21.20;54.50
35680;DHT22;21803;53.586;10.040;2022-10-16T04:44:30;21.30;54.50
35680;DHT22;21803;53.586;10.040;2022-10-16T04:46:56;21.30;54.50
35680;DHT22;21803;53.586;10.040;2022-10-16T04:49:21;21.30;54.50
35680;DHT22;21803;53.586;10.040;2022-10-16T04:51:47;21.20;54.40
35680;DHT22;21803;53.586;10.040;2022-10-16T04:54:12;21.30;54.40
35680;DHT22;21803;53.586;10.040;2022-10-16T04:56:38;21.30;54.40
35680;DHT22;21803;53.586;10.040;2022-10-16T04:59:12;21.20;54.30
35680;DHT22;21803;53.586;10.040;2022-10-16T05:01:37;21.20;54.40
35680;DHT22;21803;53.586;10.040;2022-10-16T05:04:03;21.20;54.30
35680;DHT22;21803;53.586;10.040;2022-10-16T05:06:28;21.20;54.30
35680;DHT22;21803;53.586;10.040;2022-10-16T05:08:54;21.30;54.40
35680;DHT22;21803;53.586;10.040;2022-10-16T05:11:19;21.20;54.30
35680;DHT22;21803;53.586;10.040;2022-10-16T05:13:45;21.20;54.30
35680;DHT22;21803;53.586;10.040;2022-10-16T05:16:10;21.20;54.30
35680;DHT22;21803;53.586;10.040;2022-10-16T05:18:36;21.20;54.30
35680;DHT22;21803;53.586;10.040;2022-10-16T05:21:02;21.20;54.30
35680;DHT22;21803;53.586;10.040;2022-10-16T05:23:28;21.30;54.30
35680;DHT22;21803;53.586;10.040;2022-10-16T05:25:57;21.30;54.30
35680;DHT22;21803;53.586;10.040;2022-10-16T05:28:27;21.30;54.30
35680;DHT22;21803;53.586;10.040;2022-10-16T05:30:53;21.20;54.20
35680;DHT22;21803;53.586;10.040;2022-10-16T05:33:24;21.20;54.30
35680;DHT22;21803;53.586;10.040;2022-10-16T05:35:50;21.20;54.20
35680;DHT22;21803;53.586;10.040;2022-10-16T05:38:16;21.20;54.20
35680;DHT22;21803;53.586;10.040;2022-10-16T05:40:42;21.20;54.20
35680;DHT22;21803;53.586;10.040;2022-10-16T05:43:07;21.20;54.20
35680;DHT22;21803;53.586;10.040;2022-10-16T05:45:33;21.20;54.20
35680;DHT22;21803;53.586;10.040;2022-10-16T05:47:59;21.20;54.10
35680;DHT22;21803;53.586;10.040;2022-10-16T05:50:25;21.20;54.10
35680;DHT22;21803;53.586;10.040;2022-10-16T05:52:50;21.20;54.10
35680;DHT22;21803;53.586;10.040;2022-10-16T05:55:16;21.20;54.10
35680;DHT22;21803;53.586;10.040;2022-10-16T05:57:41;21.30;54.20
35680;DHT22;21803;53.586;10.040;2022-10-16T06:00:07;21.30;54.20
35680;DHT22;21803;53.586;10.040;2022-10-16T06:02:33;21.20;54.10
35680;DHT22;21803;53.586;10.040;2022-10-16T06:04:58;21.10;54.00
35680;DHT22;21803;53.586;10.040;2022-10-16T06:07:24;21.20;54.10
35680;DHT22;21803;53.586;10.040;2022-10-16T06:09:51;21.20;54.10
35680;DHT22;21803;53.586;10.040;2022-10-16T06:12:17;21.30;54.10
35680;DHT22;21803;53.586;10.040;2022-10-16T06:14:43;21.20;54.00
35680;DHT22;21803;53.586;10.040;2022-10-16T06:17:09;21.30;54.10
35680;DHT22;21803;53.586;10.040;2022-10-16T06:19:34;21.20;54.00
35680;DHT22;21803;53.586;10.040;2022-10-16T06:22:00;21.30;54.10
35680;DHT22;21803;53.586;10.040;2022-10-16T06:24:27;21.20;54.00
35680;DHT22;21803;53.586;10.040;2022-10-16T06:26:53;21.20;54.00
35680;DHT22;21803;53.586;10.040;2022-10-16T06:29:19;21.20;54.00
35680;DHT22;21803;53.586;10.040;2022-10-16T06:31:44;21.20;54.00
35680;DHT22;21803;53.586;10.040;2022-10-16T06:34:10;21.20;54.00
35680;DHT22;21803;53.586;10.040;2022-10-16T06:36:37;21.30;54.00
35680;DHT22;21803;53.586;10.040;2022-10-16T06:39:03;21.20;54.00
35680;DHT22;21803;53.586;10.040;2022-10-16T06:41:29;21.20;54.00
35680;DHT22;21803;53.586;10.040;2022-10-16T06:43:54;21.20;53.90
35680;DHT22;21803;53.586;10.040;2022-10-16T06:46:21;21.30;54.00
35680;DHT22;21803;53.586;10.040;2022-10-16T06:48:48;21.30;54.00
35680;DHT22;21803;53.586;10.040;2022-10-16T06:51:16;21.20;53.90
35680;DHT22;21803;53.586;10.040;2022-10-16T06:53:44;21.20;53.90
35680;DHT22;21803;53.586;10.040;2022-10-16T06:56:13;21.40;54.00
35680;DHT22;21803;53.586;10.040;2022-10-16T06:58:39;21.30;53.90
35680;DHT22;21803;53.586;10.040;2022-10-16T07:01:05;21.20;53.80
35680;DHT22;21803;53.586;10.040;2022-10-16T07:03:31;21.20;53.80
35680;DHT22;21803;53.586;10.040;2022-10-16T07:05:57;21.30;53.90
35680;DHT22;21803;53.586;10.040;2022-10-16T07:08:22;21.20;53.80
35680;DHT22;21803;53.586;10.040;2022-10-16T07:10:48;21.20;53.80
35680;DHT22;21803;53.586;10.040;2022-10-16T07:13:14;21.20;53.80
35680;DHT22;21803;53.586;10.040;2022-10-16T07:15:40;21.30;53.80
35680;DHT22;21803;53.586;10.040;2022-10-16T07:18:06;21.30;53.90
35680;DHT22;21803;53.586;10.040;2022-10-16T07:20:32;21.30;53.80
35680;DHT22;21803;53.586;10.040;2022-10-16T07:22:57;21.30;53.80
35680;DHT22;21803;53.586;10.040;2022-10-16T07:25:23;21.30;53.80
35680;DHT22;21803;53.586;10.040;2022-10-16T07:27:48;21.30;53.80
35680;DHT22;21803;53.586;10.040;2022-10-16T07:30:14;21.40;53.80
35680;DHT22;21803;53.586;10.040;2022-10-16T07:32:40;21.30;53.70
35680;DHT22;21803;53.586;10.040;2022-10-16T07:35:06;21.30;53.70
35680;DHT22;21803;53.586;10.040;2022-10-16T07:37:31;21.30;53.70
35680;DHT22;21803;53.586;10.040;2022-10-16T07:39:57;21.30;53.70
35680;DHT22;21803;53.586;10.040;2022-10-16T07:42:22;21.30;53.70
35680;DHT22;21803;53.586;10.040;2022-10-16T07:44:48;21.30;53.70
35680;DHT22;21803;53.586;10.040;2022-10-16T07:47:13;21.30;53.70
35680;DHT22;21803;53.586;10.040;2022-10-16T07:49:39;21.30;53.70
35680;DHT22;21803;53.586;10.040;2022-10-16T07:52:04;21.30;53.70
35680;DHT22;21803;53.586;10.040;2022-10-16T07:54:30;21.30;53.70
35680;DHT22;21803;53.586;10.040;2022-10-16T07:56:55;21.30;53.70
35680;DHT22;21803;53.586;10.040;2022-10-16T07:59:21;21.30;53.70
35680;DHT22;21803;53.586;10.040;2022-10-16T08:01:46;21.30;53.60
35680;DHT22;21803;53.586;10.040;2022-10-16T08:04:13;21.30;53.60
35680;DHT22;21803;53.586;10.040;2022-10-16T08:06:40;21.30;53.70
35680;DHT22;21803;53.586;10.040;2022-10-16T08:09:07;21.30;53.60
35680;DHT22;21803;53.586;10.040;2022-10-16T08:11:32;21.30;53.60
35680;DHT22;21803;53.586;10.040;2022-10-16T08:13:58;21.30;53.60
35680;DHT22;21803;53.586;10.040;2022-10-16T08:16:23;21.30;53.60
35680;DHT22;21803;53.586;10.040;2022-10-16T08:18:49;21.30;53.60
35680;DHT22;21803;53.586;10.040;2022-10-16T08:21:19;21.30;53.60
35680;DHT22;21803;53.586;10.040;2022-10-16T08:23:45;21.30;53.60
35680;DHT22;21803;53.586;10.040;2022-10-16T08:26:11;21.30;53.70
35680;DHT22;21803;53.586;10.040;2022-10-16T08:28:37;21.30;53.60
35680;DHT22;21803;53.586;10.040;2022-10-16T08:31:14;21.30;53.60
35680;DHT22;21803;53.586;10.040;2022-10-16T08:33:42;21.30;53.60
35680;DHT22;21803;53.586;10.040;2022-10-16T08:36:09;21.30;53.60
35680;DHT22;21803;53.586;10.040;2022-10-16T08:38:35;21.30;53.60
35680;DHT22;21803;53.586;10.040;2022-10-16T08:43:54;21.30;53.60
35680;DHT22;21803;53.586;10.040;2022-10-16T08:46:44;21.30;53.60
35680;DHT22;21803;53.586;10.040;2022-10-16T08:49:13;21.30;53.60
35680;DHT22;21803;53.586;10.040;2022-10-16T08:51:40;21.30;53.60
35680;DHT22;21803;53.586;10.040;2022-10-16T08:54:29;21.30;53.50
35680;DHT22;21803;53.586;10.040;2022-10-16T08:56:56;21.30;53.60
35680;DHT22;21803;53.586;10.040;2022-10-16T08:59:22;21.30;53.60
35680;DHT22;21803;53.586;10.040;2022-10-16T09:01:50;21.30;53.50
35680;DHT22;21803;53.586;10.040;2022-10-16T09:07:34;21.30;53.50
35680;DHT22;21803;53.586;10.040;2022-10-16T09:15:35;21.30;53.60
35680;DHT22;21803;53.586;10.040;2022-10-16T09:21:04;21.30;53.60
35680;DHT22;21803;53.586;10.040;2022-10-16T09:23:36;21.30;53.60
35680;DHT22;21803;53.586;10.040;2022-10-16T09:26:02;21.30;53.60
35680;DHT22;21803;53.586;10.040;2022-10-16T09:28:29;21.30;53.60
35680;DHT22;21803;53.586;10.040;2022-10-16T09:30:54;21.30;53.60
35680;DHT22;21803;53.586;10.040;2022-10-16T09:33:23;21.30;53.70
35680;DHT22;21803;53.586;10.040;2022-10-16T09:35:54;21.30;53.70
35680;DHT22;21803;53.586;10.040;2022-10-16T09:48:56;21.30;53.70
35680;DHT22;21803;53.586;10.040;2022-10-16T09:51:26;21.30;53.70
35680;DHT22;21803;53.586;10.040;2022-10-16T09:54:01;21.30;53.70
35680;DHT22;21803;53.586;10.040;2022-10-16T09:56:30;21.30;53.70
35680;DHT22;21803;53.586;10.040;2022-10-16T09:59:00;21.30;53.70
35680;DHT22;21803;53.586;10.040;2022-10-16T10:01:50;21.30;53.70
35680;DHT22;21803;53.586;10.040;2022-10-16T10:04:16;21.30;53.70
35680;DHT22;21803;53.586;10.040;2022-10-16T10:06:55;21.30;53.70
35680;DHT22;21803;53.586;10.040;2022-10-16T10:09:27;21.30;53.70
35680;DHT22;21803;53.586;10.040;2022-10-16T10:11:56;21.30;53.70
35680;DHT22;21803;53.586;10.040;2022-10-16T10:14:37;21.30;53.70
35680;DHT22;21803;53.586;10.040;2022-10-16T10:19:40;21.30;53.70
35680;DHT22;21803;53.586;10.040;2022-10-16T10:35:32;21.40;53.70
35680;DHT22;21803;53.586;10.040;2022-10-16T10:38:21;20.70;53.40
35680;DHT22;21803;53.586;10.040;2022-10-16T10:40:51;21.40;53.70
35680;DHT22;21803;53.586;10.040;2022-10-16T10:46:13;21.30;53.60
35680;DHT22;21803;53.586;10.040;2022-10-16T10:48:51;21.40;53.70
35680;DHT22;21803;53.586;10.040;2022-10-16T10:54:29;21.30;53.60
35680;DHT22;21803;53.586;10.040;2022-10-16T10:57:09;21.40;53.70
35680;DHT22;21803;53.586;10.040;2022-10-16T11:00:02;21.40;53.60
35680;DHT22;21803;53.586;10.040;2022-10-16T11:02:35;21.40;53.60
35680;DHT22;21803;53.586;10.040;2022-10-16T11:07:51;21.40;53.70
35680;DHT22;21803;53.586;10.040;2022-10-16T11:10:24;21.30;53.60
35680;DHT22;21803;53.586;10.040;2022-10-16T11:12:58;22.50;54.20
35680;DHT22;21803;53.586;10.040;2022-10-16T11:15:29;21.40;53.60
35680;DHT22;21803;53.586;10.040;2022-10-16T11:18:08;21.30;53.70
35680;DHT22;21803;53.586;10.040;2022-10-16T11:20:45;21.40;53.70
35680;DHT22;21803;53.586;10.040;2022-10-16T11:23:30;21.40;53.60
35680;DHT22;21803;53.586;10.040;2022-10-16T11:26:02;22.50;54.20
35680;DHT22;21803;53.586;10.040;2022-10-16T11:28:42;21.40;53.60
35680;DHT22;21803;53.586;10.040;2022-10-16T11:33:57;21.40;53.70
35680;DHT22;21803;53.586;10.040;2022-10-16T11:36:31;21.40;53.70
35680;DHT22;21803;53.586;10.040;2022-10-16T11:39:16;21.40;53.70
35680;DHT22;21803;53.586;10.040;2022-10-16T11:44:44;21.40;53.60
35680;DHT22;21803;53.586;10.040;2022-10-16T11:47:27;21.40;53.60
35680;DHT22;21803;53.586;10.040;2022-10-16T11:50:13;21.40;53.60
35680;DHT22;21803;53.586;10.040;2022-10-16T11:53:03;21.40;53.60
35680;DHT22;21803;53.586;10.040;2022-10-16T11:55:35;21.40;53.60
35680;DHT22;21803;53.586;10.040;2022-10-16T11:58:18;21.40;53.60
35680;DHT22;21803;53.586;10.040;2022-10-16T12:03:27;21.40;53.60
35680;DHT22;21803;53.586;10.040;2022-10-16T12:06:34;21.40;53.60
35680;DHT22;21803;53.586;10.040;2022-10-16T12:09:03;21.40;53.60
35680;DHT22;21803;53.586;10.040;2022-10-16T12:19:18;21.40;53.60
35680;DHT22;21803;53.586;10.040;2022-10-16T12:21:44;21.40;53.60
35680;DHT22;21803;53.586;10.040;2022-10-16T12:26:48;21.40;53.70
35680;DHT22;21803;53.586;10.040;2022-10-16T12:32:03;21.40;53.60
35680;DHT22;21803;53.586;10.040;2022-10-16T12:34:43;21.40;53.70
35680;DHT22;21803;53.586;10.040;2022-10-16T12:37:25;21.40;53.70
35680;DHT22;21803;53.586;10.040;2022-10-16T12:39:53;21.40;53.70
35680;DHT22;21803;53.586;10.040;2022-10-16T12:42:32;21.40;53.70
35680;DHT22;21803;53.586;10.040;2022-10-16T12:44:59;21.40;53.70
35680;DHT22;21803;53.586;10.040;2022-10-16T12:49:57;21.40;53.70
35680;DHT22;21803;53.586;10.040;2022-10-16T12:52:26;21.40;53.80
35680;DHT22;21803;53.586;10.040;2022-10-16T12:54:56;21.40;53.80
35680;DHT22;21803;53.586;10.040;2022-10-16T13:02:41;21.40;53.80
35680;DHT22;21803;53.586;10.040;2022-10-16T13:08:12;21.40;53.90
35680;DHT22;21803;53.586;10.040;2022-10-16T13:10:53;21.40;53.90
35680;DHT22;21803;53.586;10.040;2022-10-16T13:13:37;21.40;53.80
35680;DHT22;21803;53.586;10.040;2022-10-16T13:19:24;21.40;53.90
35680;DHT22;21803;53.586;10.040;2022-10-16T13:22:03;21.40;53.90
35680;DHT22;21803;53.586;10.040;2022-10-16T13:29:53;21.40;53.90
35680;DHT22;21803;53.586;10.040;2022-10-16T13:32:21;21.40;53.90
35680;DHT22;21803;53.586;10.040;2022-10-16T13:34:48;21.40;53.90
35680;DHT22;21803;53.586;10.040;2022-10-16T13:37:19;21.40;53.90
35680;DHT22;21803;53.586;10.040;2022-10-16T13:39:45;21.40;53.90
35680;DHT22;21803;53.586;10.040;2022-10-16T13:42:27;21.40;54.60
35680;DHT22;21803;53.586;10.040;2022-10-16T13:44:55;21.50;54.00
35680;DHT22;21803;53.586;10.040;2022-10-16T13:47:23;21.40;53.90
35680;DHT22;21803;53.586;10.040;2022-10-16T13:50:09;21.40;53.90
35680;DHT22;21803;53.586;10.040;2022-10-16T13:52:36;21.40;54.00
35680;DHT22;21803;53.586;10.040;2022-10-16T13:55:04;21.50;54.00
35680;DHT22;21803;53.586;10.040;2022-10-16T13:57:30;21.40;53.90
35680;DHT22;21803;53.586;10.040;2022-10-16T13:59:55;21.40;53.80
35680;DHT22;21803;53.586;10.040;2022-10-16T14:02:37;21.40;53.80
35680;DHT22;21803;53.586;10.040;2022-10-16T14:05:08;21.40;53.80
35680;DHT22;21803;53.586;10.040;2022-10-16T14:07:35;21.40;53.70
35680;DHT22;21803;53.586;10.040;2022-10-16T14:10:07;21.40;53.70
35680;DHT22;21803;53.586;10.040;2022-10-16T14:12:43;21.40;53.70
35680;DHT22;21803;53.586;10.040;2022-10-16T14:15:17;21.40;53.70
35680;DHT22;21803;53.586;10.040;2022-10-16T14:17:44;21.40;53.70
35680;DHT22;21803;53.586;10.040;2022-10-16T14:20:15;21.50;53.80
35680;DHT22;21803;53.586;10.040;2022-10-16T14:22:41;21.30;53.70
35680;DHT22;21803;53.586;10.040;2022-10-16T14:27:46;21.40;53.80
35680;DHT22;21803;53.586;10.040;2022-10-16T14:30:22;21.40;53.80
35680;DHT22;21803;53.586;10.040;2022-10-16T14:32:59;21.50;53.80
35680;DHT22;21803;53.586;10.040;2022-10-16T14:35:37;21.40;53.80
35680;DHT22;21803;53.586;10.040;2022-10-16T14:38:04;21.40;53.80
35680;DHT22;21803;53.586;10.040;2022-10-16T14:40:35;21.50;53.80
35680;DHT22;21803;53.586;10.040;2022-10-16T14:43:02;21.50;53.90
35680;DHT22;21803;53.586;10.040;2022-10-16T14:45:31;21.40;53.90
35680;DHT22;21803;53.586;10.040;2022-10-16T14:48:00;21.50;53.90
35680;DHT22;21803;53.586;10.040;2022-10-16T14:50:26;21.50;53.90
35680;DHT22;21803;53.586;10.040;2022-10-16T14:52:52;21.40;53.90
35680;DHT22;21803;53.586;10.040;2022-10-16T14:55:18;21.50;53.90
35680;DHT22;21803;53.586;10.040;2022-10-16T14:57:44;21.40;53.90
35680;DHT22;21803;53.586;10.040;2022-10-16T15:00:22;21.50;53.90
35680;DHT22;21803;53.586;10.040;2022-10-16T15:02:49;21.40;53.90
35680;DHT22;21803;53.586;10.040;2022-10-16T15:05:23;21.30;54.00
35680;DHT22;21803;53.586;10.040;2022-10-16T15:07:50;21.50;54.10
35680;DHT22;21803;53.586;10.040;2022-10-16T15:10:17;21.40;54.10
35680;DHT22;21803;53.586;10.040;2022-10-16T15:12:43;21.50;54.20
35680;DHT22;21803;53.586;10.040;2022-10-16T15:15:33;21.40;54.20
35680;DHT22;21803;53.586;10.040;2022-10-16T15:17:59;21.40;54.20
35680;DHT22;21803;53.586;10.040;2022-10-16T15:20:28;21.40;54.20
35680;DHT22;21803;53.586;10.040;2022-10-16T15:22:54;21.50;54.30
35680;DHT22;21803;53.586;10.040;2022-10-16T15:25:27;21.40;54.30
35680;DHT22;21803;53.586;10.040;2022-10-16T15:27:54;21.50;54.30
35680;DHT22;21803;53.586;10.040;2022-10-16T15:30:19;21.40;54.30
35680;DHT22;21803;53.586;10.040;2022-10-16T15:32:45;21.40;54.30
35680;DHT22;21803;53.586;10.040;2022-10-16T15:35:10;21.40;54.40
35680;DHT22;21803;53.586;10.040;2022-10-16T15:37:36;21.40;54.40
35680;DHT22;21803;53.586;10.040;2022-10-16T15:40:02;21.40;54.40
35680;DHT22;21803;53.586;10.040;2022-10-16T15:42:28;21.40;54.40
35680;DHT22;21803;53.586;10.040;2022-10-16T15:44:53;21.50;54.50
35680;DHT22;21803;53.586;10.040;2022-10-16T15:47:18;21.40;54.50
35680;DHT22;21803;53.586;10.040;2022-10-16T15:49:44;21.40;54.50
35680;DHT22;21803;53.586;10.040;2022-10-16T15:52:11;21.40;54.50
35680;DHT22;21803;53.586;10.040;2022-10-16T15:54:36;21.40;54.50
35680;DHT22;21803;53.586;10.040;2022-10-16T15:57:02;21.40;54.50
35680;DHT22;21803;53.586;10.040;2022-10-16T15:59:27;21.40;54.60
35680;DHT22;21803;53.586;10.040;2022-10-16T16:01:53;21.40;54.60
35680;DHT22;21803;53.586;10.040;2022-10-16T16:04:18;21.50;54.70
35680;DHT22;21803;53.586;10.040;2022-10-16T16:06:44;21.40;54.70
35680;DHT22;21803;53.586;10.040;2022-10-16T16:09:13;21.40;54.70
35680;DHT22;21803;53.586;10.040;2022-10-16T16:11:39;21.40;54.70
35680;DHT22;21803;53.586;10.040;2022-10-16T16:14:06;21.40;54.70
35680;DHT22;21803;53.586;10.040;2022-10-16T16:16:31;21.40;54.70
35680;DHT22;21803;53.586;10.040;2022-10-16T16:19:03;21.40;54.90
35680;DHT22;21803;53.586;10.040;2022-10-16T16:21:28;21.40;55.10
35680;DHT22;21803;53.586;10.040;2022-10-16T16:23:54;21.40;55.20
35680;DHT22;21803;53.586;10.040;2022-10-16T16:26:25;21.40;55.30
35680;DHT22;21803;53.586;10.040;2022-10-16T16:28:52;21.40;55.40
35680;DHT22;21803;53.586;10.040;2022-10-16T16:31:18;21.40;55.50
35680;DHT22;21803;53.586;10.040;2022-10-16T16:33:44;21.40;55.60
35680;DHT22;21803;53.586;10.040;2022-10-16T16:36:10;21.40;55.60
35680;DHT22;21803;53.586;10.040;2022-10-16T16:38:36;21.40;55.50
35680;DHT22;21803;53.586;10.040;2022-10-16T16:41:23;21.40;55.60
35680;DHT22;21803;53.586;10.040;2022-10-16T16:43:50;21.40;55.60
35680;DHT22;21803;53.586;10.040;2022-10-16T16:46:19;21.40;55.60
35680;DHT22;21803;53.586;10.040;2022-10-16T16:48:45;21.40;55.60
35680;DHT22;21803;53.586;10.040;2022-10-16T16:51:16;21.40;55.60
35680;DHT22;21803;53.586;10.040;2022-10-16T16:53:44;21.40;56.00
35680;DHT22;21803;53.586;10.040;2022-10-16T16:56:10;21.40;56.30
35680;DHT22;21803;53.586;10.040;2022-10-16T16:58:35;21.40;56.30
35680;DHT22;21803;53.586;10.040;2022-10-16T17:01:02;21.40;56.30
35680;DHT22;21803;53.586;10.040;2022-10-16T17:03:28;21.40;56.30
35680;DHT22;21803;53.586;10.040;2022-10-16T17:06:04;21.40;56.20